sensor_id;sensor_type;location;lat;lon;timestamp;P1;durP1;ratioP1;P2;durP2;ratioP2
27921;SDS011;15261;50.356;10.340;2024-03-23T00:54:53;10.73;;;9.00;;
27921;SDS011;15261;50.356;10.340;2024-03-23T01:00:18;10.45;;;8.88;;
27921;SDS011;15261;50.356;10.340;2024-03-23T01:02:44;10.10;;;8.30;;
27921;SDS011;15261;50.356;10.340;2024-03-23T01:05:09;9.65;;;8.65;;
27921;SDS011;15261;50.356;10.340;2024-03-23T01:10:21;9.18;;;8.20;;
27921;SDS011;15261;50.356;10.340;2024-03-23T01:12:47;10.50;;;8.90;;
27921;SDS011;15261;50.356;10.340;2024-03-23T01:15:13;9.23;;;8.30;;
27921;SDS011;15261;50.356;10.340;2024-03-23T01:17:38;9.18;;;8.05;;
27921;SDS011;15261;50.356;10.340;2024-03-23T01:20:04;10.38;;;8.23;;
27921;SDS011;15261;50.356;10.340;2024-03-23T01:22:31;11.20;;;8.50;;
27921;SDS011;15261;50.356;10.340;2024-03-23T01:24:57;10.30;;;9.30;;
27921;SDS011;15261;50.356;10.340;2024-03-23T01:27:22;10.80;;;8.48;;
27921;SDS011;15261;50.356;10.340;2024-03-23T01:29:48;9.32;;;8.43;;
27921;SDS011;15261;50.356;10.340;2024-03-23T01:32:13;10.40;;;9.32;;
27921;SDS011;15261;50.356;10.340;2024-03-23T01:34:39;11.40;;;9.55;;
27921;SDS011;15261;50.356;10.340;2024-03-23T01:37:04;11.60;;;8.80;;
27921;SDS011;15261;50.356;10.340;2024-03-23T01:39:30;12.18;;;9.35;;
27921;SDS011;15261;50.356;10.340;2024-03-23T01:41:55;12.48;;;10.32;;
27921;SDS011;15261;50.356;10.340;2024-03-23T01:44:21;10.88;;;9.68;;
27921;SDS011;15261;50.356;10.340;2024-03-23T01:46:47;11.52;;;10.18;;
27921;SDS011;15261;50.356;10.340;2024-03-23T01:49:13;10.80;;;9.77;;
27921;SDS011;15261;50.356;10.340;2024-03-23T01:51:38;11.50;;;10.40;;
27921;SDS011;15261;50.356;10.340;2024-03-23T01:54:04;13.18;;;10.80;;
27921;SDS011;15261;50.356;10.340;2024-03-23T01:56:32;13.57;;;11.65;;
27921;SDS011;15261;50.356;10.340;2024-03-23T01:59:00;13.07;;;10.98;;
27921;SDS011;15261;50.356;10.340;2024-03-23T02:17:02;10.50;;;9.43;;
27921;SDS011;15261;50.356;10.340;2024-03-23T02:19:28;12.02;;;9.02;;
27921;SDS011;15261;50.356;10.340;2024-03-23T02:21:53;11.68;;;9.57;;
27921;SDS011;15261;50.356;10.340;2024-03-23T02:24:19;12.32;;;9.10;;
27921;SDS011;15261;50.356;10.340;2024-03-23T02:26:44;10.20;;;9.23;;
27921;SDS011;15261;50.356;10.340;2024-03-23T02:29:13;11.75;;;9.25;;
27921;SDS011;15261;50.356;10.340;2024-03-23T02:31:39;12.90;;;10.00;;
27921;SDS011;15261;50.356;10.340;2024-03-23T02:34:04;11.25;;;9.82;;
27921;SDS011;15261;50.356;10.340;2024-03-23T02:36:30;11.45;;;9.68;;
27921;SDS011;15261;50.356;10.340;2024-03-23T02:38:56;11.43;;;10.00;;
27921;SDS011;15261;50.356;10.340;2024-03-23T02:41:21;12.40;;;9.88;;
27921;SDS011;15261;50.356;10.340;2024-03-23T02:43:51;10.80;;;9.60;;
27921;SDS011;15261;50.356;10.340;2024-03-23T02:46:17;11.48;;;10.00;;
27921;SDS011;15261;50.356;10.340;2024-03-23T02:48:43;10.50;;;9.50;;
27921;SDS011;15261;50.356;10.340;2024-03-23T02:51:08;10.75;;;9.63;;
27921;SDS011;15261;50.356;10.340;2024-03-23T02:53:34;10.18;;;9.02;;
27921;SDS011;15261;50.356;10.340;2024-03-23T02:55:59;15.32;;;9.23;;
27921;SDS011;15261;50.356;10.340;2024-03-23T02:58:25;15.63;;;9.77;;
27921;SDS011;15261;50.356;10.340;2024-03-23T03:00:51;10.20;;;9.20;;
27921;SDS011;15261;50.356;10.340;2024-03-23T03:03:16;13.18;;;9.52;;
27921;SDS011;15261;50.356;10.340;2024-03-23T03:05:42;11.32;;;10.27;;
27921;SDS011;15261;50.356;10.340;2024-03-23T03:08:08;11.55;;;9.48;;
27921;SDS011;15261;50.356;10.340;2024-03-23T03:10:33;9.98;;;8.98;;
27921;SDS011;15261;50.356;10.340;2024-03-23T03:13:01;10.65;;;9.65;;
27921;SDS011;15261;50.356;10.340;2024-03-23T03:15:27;12.75;;;10.82;;
27921;SDS011;15261;50.356;10.340;2024-03-23T03:17:52;11.35;;;9.45;;
27921;SDS011;15261;50.356;10.340;2024-03-23T03:20:18;12.10;;;10.90;;
27921;SDS011;15261;50.356;10.340;2024-03-23T03:22:43;11.98;;;10.77;;
27921;SDS011;15261;50.356;10.340;2024-03-23T03:25:09;16.98;;;12.05;;
27921;SDS011;15261;50.356;10.340;2024-03-23T03:27:34;12.48;;;10.98;;
27921;SDS011;15261;50.356;10.340;2024-03-23T03:30:00;13.40;;;10.98;;
27921;SDS011;15261;50.356;10.340;2024-03-23T03:32:28;11.40;;;9.65;;
27921;SDS011;15261;50.356;10.340;2024-03-23T03:34:54;12.45;;;10.80;;
27921;SDS011;15261;50.356;10.340;2024-03-23T03:37:20;11.40;;;10.05;;
27921;SDS011;15261;50.356;10.340;2024-03-23T03:39:45;10.63;;;9.45;;
27921;SDS011;15261;50.356;10.340;2024-03-23T03:42:11;12.82;;;9.35;;
27921;SDS011;15261;50.356;10.340;2024-03-23T03:44:36;10.48;;;9.38;;
27921;SDS011;15261;50.356;10.340;2024-03-23T03:47:02;24.55;;;21.98;;
27921;SDS011;15261;50.356;10.340;2024-03-23T03:49:27;16.77;;;13.68;;
27921;SDS011;15261;50.356;10.340;2024-03-23T03:51:53;13.68;;;12.38;;
27921;SDS011;15261;50.356;10.340;2024-03-23T03:54:18;15.40;;;11.80;;
27921;SDS011;15261;50.356;10.340;2024-03-23T03:56:44;12.65;;;10.65;;
27921;SDS011;15261;50.356;10.340;2024-03-23T03:59:09;14.57;;;11.90;;
27921;SDS011;15261;50.356;10.340;2024-03-23T04:01:35;15.90;;;11.90;;
27921;SDS011;15261;50.356;10.340;2024-03-23T04:04:01;12.20;;;11.00;;
27921;SDS011;15261;50.356;10.340;2024-03-23T04:06:26;12.40;;;10.82;;
27921;SDS011;15261;50.356;10.340;2024-03-23T04:08:52;14.70;;;11.10;;
27921;SDS011;15261;50.356;10.340;2024-03-23T04:11:17;12.18;;;10.98;;
27921;SDS011;15261;50.356;10.340;2024-03-23T04:13:43;12.00;;;10.80;;
27921;SDS011;15261;50.356;10.340;2024-03-23T04:16:08;14.05;;;11.60;;
27921;SDS011;15261;50.356;10.340;2024-03-23T04:18:34;12.93;;;10.57;;
27921;SDS011;15261;50.356;10.340;2024-03-23T04:21:00;14.25;;;10.65;;
27921;SDS011;15261;50.356;10.340;2024-03-23T04:23:26;13.85;;;10.27;;
27921;SDS011;15261;50.356;10.340;2024-03-23T04:25:51;14.32;;;10.05;;
27921;SDS011;15261;50.356;10.340;2024-03-23T04:28:18;12.07;;;10.00;;
27921;SDS011;15261;50.356;10.340;2024-03-23T04:30:44;11.75;;;10.63;;
27921;SDS011;15261;50.356;10.340;2024-03-23T04:33:09;11.88;;;10.57;;
27921;SDS011;15261;50.356;10.340;2024-03-23T04:35:35;11.95;;;10.73;;
27921;SDS011;15261;50.356;10.340;2024-03-23T04:38:01;13.60;;;11.32;;
27921;SDS011;15261;50.356;10.340;2024-03-23T04:40:26;12.98;;;11.68;;
27921;SDS011;15261;50.356;10.340;2024-03-23T04:42:52;14.68;;;11.95;;
27921;SDS011;15261;50.356;10.340;2024-03-23T04:45:17;12.77;;;11.50;;
27921;SDS011;15261;50.356;10.340;2024-03-23T04:47:43;12.63;;;11.32;;
27921;SDS011;15261;50.356;10.340;2024-03-23T04:50:09;13.65;;;11.85;;
27921;SDS011;15261;50.356;10.340;2024-03-23T04:52:37;12.65;;;11.35;;
27921;SDS011;15261;50.356;10.340;2024-03-23T04:55:03;13.60;;;12.25;;
27921;SDS011;15261;50.356;10.340;2024-03-23T04:57:29;19.38;;;12.73;;
27921;SDS011;15261;50.356;10.340;2024-03-23T04:59:54;15.57;;;13.18;;
27921;SDS011;15261;50.356;10.340;2024-03-23T05:02:20;16.83;;;12.48;;
27921;SDS011;15261;50.356;10.340;2024-03-23T05:04:45;13.43;;;12.02;;
27921;SDS011;15261;50.356;10.340;2024-03-23T05:07:11;14.30;;;12.80;;
27921;SDS011;15261;50.356;10.340;2024-03-23T05:09:36;13.77;;;12.35;;
27921;SDS011;15261;50.356;10.340;2024-03-23T05:12:02;14.00;;;11.90;;
27921;SDS011;15261;50.356;10.340;2024-03-23T05:14:28;11.43;;;10.27;;
27921;SDS011;15261;50.356;10.340;2024-03-23T05:16:54;16.98;;;11.10;;
27921;SDS011;15261;50.356;10.340;2024-03-23T05:19:20;14.88;;;11.25;;
27921;SDS011;15261;50.356;10.340;2024-03-23T05:21:46;18.90;;;12.13;;
27921;SDS011;15261;50.356;10.340;2024-03-23T05:24:11;13.27;;;11.93;;
27921;SDS011;15261;50.356;10.340;2024-03-23T05:26:37;15.57;;;12.63;;
27921;SDS011;15261;50.356;10.340;2024-03-23T05:29:03;15.15;;;11.73;;
27921;SDS011;15261;50.356;10.340;2024-03-23T05:31:29;15.82;;;11.77;;
27921;SDS011;15261;50.356;10.340;2024-03-23T05:33:55;12.95;;;11.60;;
27921;SDS011;15261;50.356;10.340;2024-03-23T05:36:21;13.07;;;11.50;;
27921;SDS011;15261;50.356;10.340;2024-03-23T05:38:48;13.75;;;12.05;;
27921;SDS011;15261;50.356;10.340;2024-03-23T05:41:14;15.43;;;12.02;;
27921;SDS011;15261;50.356;10.340;2024-03-23T05:43:40;14.20;;;12.35;;
27921;SDS011;15261;50.356;10.340;2024-03-23T05:46:05;13.45;;;12.13;;
27921;SDS011;15261;50.356;10.340;2024-03-23T05:48:31;13.50;;;12.18;;
27921;SDS011;15261;50.356;10.340;2024-03-23T05:50:57;14.23;;;12.82;;
27921;SDS011;15261;50.356;10.340;2024-03-23T05:53:23;15.00;;;12.40;;
27921;SDS011;15261;50.356;10.340;2024-03-23T05:55:49;17.15;;;14.52;;
27921;SDS011;15261;50.356;10.340;2024-03-23T05:58:18;19.27;;;14.13;;
27921;SDS011;15261;50.356;10.340;2024-03-23T06:00:45;15.10;;;13.70;;
27921;SDS011;15261;50.356;10.340;2024-03-23T06:03:10;15.52;;;13.93;;
27921;SDS011;15261;50.356;10.340;2024-03-23T06:05:37;15.52;;;13.43;;
27921;SDS011;15261;50.356;10.340;2024-03-23T06:08:03;16.77;;;13.30;;
27921;SDS011;15261;50.356;10.340;2024-03-23T06:10:29;15.27;;;13.65;;
27921;SDS011;15261;50.356;10.340;2024-03-23T06:12:54;15.23;;;13.73;;
27921;SDS011;15261;50.356;10.340;2024-03-23T06:15:20;17.08;;;14.32;;
27921;SDS011;15261;50.356;10.340;2024-03-23T06:17:47;19.50;;;15.48;;
27921;SDS011;15261;50.356;10.340;2024-03-23T06:20:13;18.00;;;15.63;;
27921;SDS011;15261;50.356;10.340;2024-03-23T06:22:39;19.58;;;15.48;;
27921;SDS011;15261;50.356;10.340;2024-03-23T06:25:05;17.75;;;15.50;;
27921;SDS011;15261;50.356;10.340;2024-03-23T06:27:31;20.35;;;15.63;;
27921;SDS011;15261;50.356;10.340;2024-03-23T06:29:58;16.33;;;14.20;;
27921;SDS011;15261;50.356;10.340;2024-03-23T06:32:24;17.10;;;14.75;;
27921;SDS011;15261;50.356;10.340;2024-03-23T06:34:49;15.93;;;14.30;;
27921;SDS011;15261;50.356;10.340;2024-03-23T06:37:15;14.40;;;12.90;;
27921;SDS011;15261;50.356;10.340;2024-03-23T06:39:49;11.55;;;10.27;;
27921;SDS011;15261;50.356;10.340;2024-03-23T06:42:14;10.05;;;9.05;;
27921;SDS011;15261;50.356;10.340;2024-03-23T06:44:41;6.80;;;5.95;;
27921;SDS011;15261;50.356;10.340;2024-03-23T06:47:07;4.90;;;4.47;;
27921;SDS011;15261;50.356;10.340;2024-03-23T06:49:32;3.95;;;3.65;;
27921;SDS011;15261;50.356;10.340;2024-03-23T06:51:58;4.28;;;3.88;;
27921;SDS011;15261;50.356;10.340;2024-03-23T06:54:24;4.38;;;3.28;;
27921;SDS011;15261;50.356;10.340;2024-03-23T06:56:50;2.40;;;2.20;;
27921;SDS011;15261;50.356;10.340;2024-03-23T06:59:15;3.22;;;1.58;;
27921;SDS011;15261;50.356;10.340;2024-03-23T07:01:41;1.10;;;1.10;;
27921;SDS011;15261;50.356;10.340;2024-03-23T07:04:07;1.40;;;1.30;;
27921;SDS011;15261;50.356;10.340;2024-03-23T07:06:33;1.42;;;0.90;;
27921;SDS011;15261;50.356;10.340;2024-03-23T07:08:58;0.68;;;0.68;;
27921;SDS011;15261;50.356;10.340;2024-03-23T07:11:24;1.65;;;0.60;;
27921;SDS011;15261;50.356;10.340;2024-03-23T07:13:50;0.70;;;0.70;;
27921;SDS011;15261;50.356;10.340;2024-03-23T07:16:16;0.57;;;0.57;;
27921;SDS011;15261;50.356;10.340;2024-03-23T07:18:42;0.20;;;0.20;;
27921;SDS011;15261;50.356;10.340;2024-03-23T07:21:07;0.30;;;0.30;;
27921;SDS011;15261;50.356;10.340;2024-03-23T07:23:33;0.40;;;0.40;;
27921;SDS011;15261;50.356;10.340;2024-03-23T07:25:59;0.52;;;0.45;;
27921;SDS011;15261;50.356;10.340;2024-03-23T07:28:26;0.80;;;0.80;;
27921;SDS011;15261;50.356;10.340;2024-03-23T07:31:06;3.03;;;2.42;;
27921;SDS011;15261;50.356;10.340;2024-03-23T07:33:36;1.52;;;1.30;;
27921;SDS011;15261;50.356;10.340;2024-03-23T07:36:06;0.82;;;0.43;;
27921;SDS011;15261;50.356;10.340;2024-03-23T07:38:32;0.60;;;0.60;;
27921;SDS011;15261;50.356;10.340;2024-03-23T07:41:19;0.80;;;0.80;;
27921;SDS011;15261;50.356;10.340;2024-03-23T07:43:45;0.60;;;0.60;;
27921;SDS011;15261;50.356;10.340;2024-03-23T07:46:11;2.15;;;0.60;;
27921;SDS011;15261;50.356;10.340;2024-03-23T07:51:38;0.22;;;0.22;;
27921;SDS011;15261;50.356;10.340;2024-03-23T07:54:04;0.50;;;0.50;;
27921;SDS011;15261;50.356;10.340;2024-03-23T07:56:30;0.20;;;0.20;;
27921;SDS011;15261;50.356;10.340;2024-03-23T07:58:57;0.38;;;0.28;;
27921;SDS011;15261;50.356;10.340;2024-03-23T08:01:22;0.20;;;0.20;;
27921;SDS011;15261;50.356;10.340;2024-03-23T08:03:49;0.57;;;0.57;;
27921;SDS011;15261;50.356;10.340;2024-03-23T08:06:15;0.38;;;0.38;;
27921;SDS011;15261;50.356;10.340;2024-03-23T08:08:44;0.30;;;0.30;;
27921;SDS011;15261;50.356;10.340;2024-03-23T08:11:10;0.30;;;0.30;;
27921;SDS011;15261;50.356;10.340;2024-03-23T08:13:37;0.10;;;0.10;;
27921;SDS011;15261;50.356;10.340;2024-03-23T08:16:06;0.35;;;0.30;;
27921;SDS011;15261;50.356;10.340;2024-03-23T08:18:33;0.20;;;0.20;;
27921;SDS011;15261;50.356;10.340;2024-03-23T08:20:59;0.13;;;0.13;;
27921;SDS011;15261;50.356;10.340;2024-03-23T08:23:29;1.60;;;0.43;;
27921;SDS011;15261;50.356;10.340;2024-03-23T08:25:57;0.63;;;0.32;;
27921;SDS011;15261;50.356;10.340;2024-03-23T08:28:24;2.45;;;2.28;;
27921;SDS011;15261;50.356;10.340;2024-03-23T08:30:50;3.60;;;3.40;;
27921;SDS011;15261;50.356;10.340;2024-03-23T08:33:16;0.80;;;0.80;;
27921;SDS011;15261;50.356;10.340;2024-03-23T08:35:42;0.70;;;0.70;;
27921;SDS011;15261;50.356;10.340;2024-03-23T08:38:07;0.70;;;0.70;;
27921;SDS011;15261;50.356;10.340;2024-03-23T08:40:33;1.48;;;0.70;;
27921;SDS011;15261;50.356;10.340;2024-03-23T08:42:58;0.57;;;0.50;;
27921;SDS011;15261;50.356;10.340;2024-03-23T08:45:24;0.60;;;0.40;;
27921;SDS011;15261;50.356;10.340;2024-03-23T08:47:50;0.60;;;0.60;;
27921;SDS011;15261;50.356;10.340;2024-03-23T08:50:16;0.40;;;0.40;;
27921;SDS011;15261;50.356;10.340;2024-03-23T08:52:42;1.33;;;0.40;;
27921;SDS011;15261;50.356;10.340;2024-03-23T08:55:08;3.83;;;1.08;;
27921;SDS011;15261;50.356;10.340;2024-03-23T08:57:34;4.72;;;1.10;;
27921;SDS011;15261;50.356;10.340;2024-03-23T09:00:00;2.03;;;1.13;;
27921;SDS011;15261;50.356;10.340;2024-03-23T09:02:26;2.75;;;1.10;;
27921;SDS011;15261;50.356;10.340;2024-03-23T09:04:51;1.52;;;1.08;;
27921;SDS011;15261;50.356;10.340;2024-03-23T09:07:17;3.35;;;1.23;;
27921;SDS011;15261;50.356;10.340;2024-03-23T09:09:43;1.98;;;1.30;;
27921;SDS011;15261;50.356;10.340;2024-03-23T09:12:08;4.22;;;1.63;;
27921;SDS011;15261;50.356;10.340;2024-03-23T09:14:34;4.20;;;2.08;;
27921;SDS011;15261;50.356;10.340;2024-03-23T09:17:00;3.83;;;1.70;;
27921;SDS011;15261;50.356;10.340;2024-03-23T09:19:28;4.07;;;2.00;;
27921;SDS011;15261;50.356;10.340;2024-03-23T09:21:54;4.55;;;2.20;;
27921;SDS011;15261;50.356;10.340;2024-03-23T09:24:20;7.55;;;2.00;;
27921;SDS011;15261;50.356;10.340;2024-03-23T09:26:46;6.68;;;1.98;;
27921;SDS011;15261;50.356;10.340;2024-03-23T09:29:11;12.52;;;4.50;;
27921;SDS011;15261;50.356;10.340;2024-03-23T09:31:39;11.32;;;7.07;;
27921;SDS011;15261;50.356;10.340;2024-03-23T09:34:06;4.95;;;2.08;;
27921;SDS011;15261;50.356;10.340;2024-03-23T09:36:31;6.03;;;2.00;;
27921;SDS011;15261;50.356;10.340;2024-03-23T09:38:57;5.00;;;1.92;;
27921;SDS011;15261;50.356;10.340;2024-03-23T09:41:22;4.82;;;2.17;;
27921;SDS011;15261;50.356;10.340;2024-03-23T09:43:48;7.22;;;2.45;;
27921;SDS011;15261;50.356;10.340;2024-03-23T09:46:18;5.30;;;2.33;;
27921;SDS011;15261;50.356;10.340;2024-03-23T09:48:44;6.40;;;2.35;;
27921;SDS011;15261;50.356;10.340;2024-03-23T09:51:14;10.63;;;2.72;;
27921;SDS011;15261;50.356;10.340;2024-03-23T09:53:42;7.20;;;2.38;;
27921;SDS011;15261;50.356;10.340;2024-03-23T09:56:09;6.45;;;2.60;;
27921;SDS011;15261;50.356;10.340;2024-03-23T09:58:35;7.85;;;2.90;;
27921;SDS011;15261;50.356;10.340;2024-03-23T10:01:03;10.23;;;2.88;;
27921;SDS011;15261;50.356;10.340;2024-03-23T10:03:29;7.15;;;2.95;;
27921;SDS011;15261;50.356;10.340;2024-03-23T10:06:01;7.05;;;2.72;;
27921;SDS011;15261;50.356;10.340;2024-03-23T10:08:28;7.63;;;3.03;;
27921;SDS011;15261;50.356;10.340;2024-03-23T10:10:55;6.63;;;2.95;;
27921;SDS011;15261;50.356;10.340;2024-03-23T10:13:27;5.47;;;2.80;;
27921;SDS011;15261;50.356;10.340;2024-03-23T10:15:55;6.57;;;3.10;;
27921;SDS011;15261;50.356;10.340;2024-03-23T10:18:24;6.30;;;2.75;;
27921;SDS011;15261;50.356;10.340;2024-03-23T10:20:51;8.27;;;2.90;;
27921;SDS011;15261;50.356;10.340;2024-03-23T10:23:32;7.03;;;3.78;;
27921;SDS011;15261;50.356;10.340;2024-03-23T10:26:17;6.32;;;2.58;;
27921;SDS011;15261;50.356;10.340;2024-03-23T10:28:59;3.58;;;3.15;;
27921;SDS011;15261;50.356;10.340;2024-03-23T10:31:30;17.90;;;15.50;;
27921;SDS011;15261;50.356;10.340;2024-03-23T10:33:56;9.88;;;6.15;;
27921;SDS011;15261;50.356;10.340;2024-03-23T10:36:23;10.02;;;8.30;;
27921;SDS011;15261;50.356;10.340;2024-03-23T10:38:50;12.93;;;10.75;;
27921;SDS011;15261;50.356;10.340;2024-03-23T10:41:17;13.75;;;11.45;;
27921;SDS011;15261;50.356;10.340;2024-03-23T10:43:44;15.45;;;13.40;;
27921;SDS011;15261;50.356;10.340;2024-03-23T11:50:19;30.48;;;26.92;;
27921;SDS011;15261;50.356;10.340;2024-03-23T11:52:45;52.72;;;43.58;;
27921;SDS011;15261;50.356;10.340;2024-03-23T11:55:11;18.20;;;16.33;;
27921;SDS011;15261;50.356;10.340;2024-03-23T11:57:36;5.38;;;3.60;;
27921;SDS011;15261;50.356;10.340;2024-03-23T12:00:02;7.63;;;3.38;;
27921;SDS011;15261;50.356;10.340;2024-03-23T12:02:45;7.05;;;3.25;;
27921;SDS011;15261;50.356;10.340;2024-03-23T12:05:15;5.95;;;3.08;;
27921;SDS011;15261;50.356;10.340;2024-03-23T12:07:41;5.50;;;3.17;;
27921;SDS011;15261;50.356;10.340;2024-03-23T12:10:06;5.32;;;2.53;;
27921;SDS011;15261;50.356;10.340;2024-03-23T12:12:32;9.13;;;3.05;;
27921;SDS011;15261;50.356;10.340;2024-03-23T12:15:02;9.68;;;2.90;;
27921;SDS011;15261;50.356;10.340;2024-03-23T12:17:28;4.30;;;2.13;;
27921;SDS011;15261;50.356;10.340;2024-03-23T12:19:53;4.50;;;2.05;;
27921;SDS011;15261;50.356;10.340;2024-03-23T12:22:22;7.03;;;2.25;;
27921;SDS011;15261;50.356;10.340;2024-03-23T12:24:48;6.18;;;2.28;;
27921;SDS011;15261;50.356;10.340;2024-03-23T12:27:14;6.55;;;2.40;;
27921;SDS011;15261;50.356;10.340;2024-03-23T12:29:40;7.78;;;2.50;;
27921;SDS011;15261;50.356;10.340;2024-03-23T12:32:08;6.75;;;2.28;;
27921;SDS011;15261;50.356;10.340;2024-03-23T12:34:33;4.95;;;1.90;;
27921;SDS011;15261;50.356;10.340;2024-03-23T12:37:00;11.73;;;2.35;;
27921;SDS011;15261;50.356;10.340;2024-03-23T12:39:26;6.57;;;2.25;;
27921;SDS011;15261;50.356;10.340;2024-03-23T12:41:52;7.45;;;1.80;;
27921;SDS011;15261;50.356;10.340;2024-03-23T12:44:20;10.85;;;1.83;;
27921;SDS011;15261;50.356;10.340;2024-03-23T12:46:46;8.90;;;1.80;;
27921;SDS011;15261;50.356;10.340;2024-03-23T12:49:12;4.30;;;1.20;;
27921;SDS011;15261;50.356;10.340;2024-03-23T12:51:37;1.20;;;1.10;;
27921;SDS011;15261;50.356;10.340;2024-03-23T12:54:03;1.42;;;1.08;;
27921;SDS011;15261;50.356;10.340;2024-03-23T12:56:29;3.33;;;1.35;;
27921;SDS011;15261;50.356;10.340;2024-03-23T12:58:55;5.07;;;1.73;;
27921;SDS011;15261;50.356;10.340;2024-03-23T13:01:25;5.15;;;1.60;;
27921;SDS011;15261;50.356;10.340;2024-03-23T13:03:51;5.82;;;2.03;;
27921;SDS011;15261;50.356;10.340;2024-03-23T13:06:17;6.35;;;1.95;;
27921;SDS011;15261;50.356;10.340;2024-03-23T13:08:46;4.22;;;1.83;;
27921;SDS011;15261;50.356;10.340;2024-03-23T13:11:14;3.30;;;1.80;;
27921;SDS011;15261;50.356;10.340;2024-03-23T13:13:40;6.68;;;1.95;;
27921;SDS011;15261;50.356;10.340;2024-03-23T13:16:07;3.15;;;1.77;;
27921;SDS011;15261;50.356;10.340;2024-03-23T13:18:32;2.20;;;1.33;;
27921;SDS011;15261;50.356;10.340;2024-03-23T13:20:58;5.38;;;1.42;;
27921;SDS011;15261;50.356;10.340;2024-03-23T13:23:24;3.95;;;1.70;;
27921;SDS011;15261;50.356;10.340;2024-03-23T13:25:51;2.17;;;1.40;;
27921;SDS011;15261;50.356;10.340;2024-03-23T13:28:18;4.45;;;1.63;;
27921;SDS011;15261;50.356;10.340;2024-03-23T13:30:54;3.05;;;1.50;;
27921;SDS011;15261;50.356;10.340;2024-03-23T13:33:20;5.43;;;1.60;;
27921;SDS011;15261;50.356;10.340;2024-03-23T13:35:50;4.63;;;1.80;;
27921;SDS011;15261;50.356;10.340;2024-03-23T13:38:20;4.22;;;2.00;;
27921;SDS011;15261;50.356;10.340;2024-03-23T13:40:52;3.70;;;1.70;;
27921;SDS011;15261;50.356;10.340;2024-03-23T13:43:19;3.55;;;1.70;;
27921;SDS011;15261;50.356;10.340;2024-03-23T13:45:46;6.90;;;4.28;;
27921;SDS011;15261;50.356;10.340;2024-03-23T13:48:12;12.82;;;10.70;;
27921;SDS011;15261;50.356;10.340;2024-03-23T13:50:38;4.13;;;2.80;;
27921;SDS011;15261;50.356;10.340;2024-03-23T13:53:04;5.78;;;2.28;;
27921;SDS011;15261;50.356;10.340;2024-03-23T13:55:30;3.13;;;1.83;;
27921;SDS011;15261;50.356;10.340;2024-03-23T13:57:56;3.20;;;1.80;;
27921;SDS011;15261;50.356;10.340;2024-03-23T14:00:21;4.70;;;1.70;;
27921;SDS011;15261;50.356;10.340;2024-03-23T14:02:47;5.20;;;1.92;;
27921;SDS011;15261;50.356;10.340;2024-03-23T14:05:12;5.18;;;1.92;;
27921;SDS011;15261;50.356;10.340;2024-03-23T14:07:38;5.30;;;2.03;;
27921;SDS011;15261;50.356;10.340;2024-03-23T14:10:03;6.75;;;2.10;;
27921;SDS011;15261;50.356;10.340;2024-03-23T14:12:31;4.45;;;2.05;;
27921;SDS011;15261;50.356;10.340;2024-03-23T14:14:57;7.53;;;2.05;;
27921;SDS011;15261;50.356;10.340;2024-03-23T14:17:22;8.02;;;2.63;;
27921;SDS011;15261;50.356;10.340;2024-03-23T14:19:48;5.78;;;2.33;;
27921;SDS011;15261;50.356;10.340;2024-03-23T14:22:15;4.43;;;2.30;;
27921;SDS011;15261;50.356;10.340;2024-03-23T14:24:44;4.15;;;2.10;;
27921;SDS011;15261;50.356;10.340;2024-03-23T14:27:10;5.32;;;1.80;;
27921;SDS011;15261;50.356;10.340;2024-03-23T14:29:35;4.55;;;2.10;;
27921;SDS011;15261;50.356;10.340;2024-03-23T14:32:01;5.60;;;1.85;;
27921;SDS011;15261;50.356;10.340;2024-03-23T14:34:26;4.10;;;1.88;;
27921;SDS011;15261;50.356;10.340;2024-03-23T14:36:53;4.03;;;2.03;;
27921;SDS011;15261;50.356;10.340;2024-03-23T14:39:22;5.50;;;2.20;;
27921;SDS011;15261;50.356;10.340;2024-03-23T14:41:49;7.38;;;2.20;;
27921;SDS011;15261;50.356;10.340;2024-03-23T14:44:15;4.72;;;1.92;;
27921;SDS011;15261;50.356;10.340;2024-03-23T14:46:41;9.35;;;2.15;;
27921;SDS011;15261;50.356;10.340;2024-03-23T14:49:06;3.60;;;1.77;;
27921;SDS011;15261;50.356;10.340;2024-03-23T14:51:32;8.00;;;2.13;;
27921;SDS011;15261;50.356;10.340;2024-03-23T14:53:58;8.65;;;2.35;;
27921;SDS011;15261;50.356;10.340;2024-03-23T14:56:24;4.40;;;1.90;;
27921;SDS011;15261;50.356;10.340;2024-03-23T14:58:52;19.83;;;2.15;;
27921;SDS011;15261;50.356;10.340;2024-03-23T15:01:18;4.88;;;1.30;;
27921;SDS011;15261;50.356;10.340;2024-03-23T15:03:44;3.25;;;1.00;;
27921;SDS011;15261;50.356;10.340;2024-03-23T15:06:10;1.90;;;0.90;;
27921;SDS011;15261;50.356;10.340;2024-03-23T15:08:36;4.75;;;1.02;;
27921;SDS011;15261;50.356;10.340;2024-03-23T15:11:05;1.10;;;1.00;;
27921;SDS011;15261;50.356;10.340;2024-03-23T15:13:35;3.90;;;1.33;;
27921;SDS011;15261;50.356;10.340;2024-03-23T15:16:01;4.83;;;2.23;;
27921;SDS011;15261;50.356;10.340;2024-03-23T15:18:32;2.00;;;1.80;;
27921;SDS011;15261;50.356;10.340;2024-03-23T15:21:15;8.50;;;5.70;;
27921;SDS011;15261;50.356;10.340;2024-03-23T15:23:45;2.33;;;1.60;;
27921;SDS011;15261;50.356;10.340;2024-03-23T15:26:12;2.33;;;1.63;;
27921;SDS011;15261;50.356;10.340;2024-03-23T15:28:38;2.10;;;1.37;;
27921;SDS011;15261;50.356;10.340;2024-03-23T15:31:29;2.40;;;1.30;;
27921;SDS011;15261;50.356;10.340;2024-03-23T15:33:58;2.97;;;1.40;;
27921;SDS011;15261;50.356;10.340;2024-03-23T15:36:24;1.13;;;1.10;;
27921;SDS011;15261;50.356;10.340;2024-03-23T15:38:50;2.43;;;2.23;;
27921;SDS011;15261;50.356;10.340;2024-03-23T15:41:20;4.00;;;3.63;;
27921;SDS011;15261;50.356;10.340;2024-03-23T15:46:45;30.58;;;25.70;;
27921;SDS011;15261;50.356;10.340;2024-03-23T15:49:17;8.43;;;7.60;;
27921;SDS011;15261;50.356;10.340;2024-03-23T15:54:13;7.10;;;6.32;;
27921;SDS011;15261;50.356;10.340;2024-03-23T15:59:13;6.47;;;5.88;;
27921;SDS011;15261;50.356;10.340;2024-03-23T16:01:39;3.80;;;3.50;;
27921;SDS011;15261;50.356;10.340;2024-03-23T16:04:04;4.55;;;3.05;;
27921;SDS011;15261;50.356;10.340;2024-03-23T16:08:59;6.28;;;5.60;;
27921;SDS011;15261;50.356;10.340;2024-03-23T16:11:25;5.60;;;5.00;;
27921;SDS011;15261;50.356;10.340;2024-03-23T16:13:51;2.33;;;2.13;;
27921;SDS011;15261;50.356;10.340;2024-03-23T16:16:17;3.60;;;3.35;;
27921;SDS011;15261;50.356;10.340;2024-03-23T16:18:45;5.22;;;3.60;;
27921;SDS011;15261;50.356;10.340;2024-03-23T16:21:11;5.32;;;2.65;;
27921;SDS011;15261;50.356;10.340;2024-03-23T16:23:37;3.15;;;2.03;;
27921;SDS011;15261;50.356;10.340;2024-03-23T16:26:03;1.40;;;1.40;;
27921;SDS011;15261;50.356;10.340;2024-03-23T16:28:30;2.08;;;1.70;;
27921;SDS011;15261;50.356;10.340;2024-03-23T16:30:58;7.03;;;6.43;;
27921;SDS011;15261;50.356;10.340;2024-03-23T16:33:26;12.93;;;11.73;;
27921;SDS011;15261;50.356;10.340;2024-03-23T16:35:56;5.25;;;4.85;;
27921;SDS011;15261;50.356;10.340;2024-03-23T16:38:33;3.38;;;3.08;;
27921;SDS011;15261;50.356;10.340;2024-03-23T16:41:00;4.75;;;3.28;;
27921;SDS011;15261;50.356;10.340;2024-03-23T16:43:29;3.33;;;3.03;;
27921;SDS011;15261;50.356;10.340;2024-03-23T16:45:56;2.25;;;2.10;;
27921;SDS011;15261;50.356;10.340;2024-03-23T16:48:29;2.90;;;2.70;;
27921;SDS011;15261;50.356;10.340;2024-03-23T16:53:31;7.18;;;6.55;;
27921;SDS011;15261;50.356;10.340;2024-03-23T16:55:58;7.28;;;6.25;;
27921;SDS011;15261;50.356;10.340;2024-03-23T16:58:31;5.38;;;4.88;;